Js Ineos Invention — 9HA4281 — position and weather

sailwx.info

Track history (hours):
 
Tides and Currents Weather Stations Pressure Air Temp Water Temp Dewpoint Dewpoint Depression Visibility Wind Speed Wind Dir Waves Ship Positions

Js Ineos Invention

Last reported at 2018-Jul-21 18:33 UTC. Time now 2018-Jul-21 19:32 UTC.
Position N 39°48' W 075°25'.

Length 180 m; draft 7.7 m.

Type: Other ship. MMSI: 249551000.

Date/timePositionNaut miles runAvg speedWind from/ knotsBaromVisibWave heightAir tempDewpointWater temp
2018-Jul-21 18:33N 39°48' W 075°25'0 0.0
2018-Jul-21 18:27N 39°48' W 075°25'0 0.0
2018-Jul-21 18:00N 39°48' W 075°25'0 0.0
2018-Jul-21 17:00N 39°48' W 075°25'0 0.0
2018-Jul-21 07:33N 39°48' W 075°25'0 0.0
2018-Jul-21 05:57N 39°48' W 075°25'0 0.0
2018-Jul-21 04:39N 39°48' W 075°25'0 0.0
2018-Jul-21 04:30N 39°48' W 075°25'0 0.0
2018-Jul-21 04:01N 39°48' W 075°25'1 2.1
2018-Jul-21 03:30N 39°48' W 075°26'4 7.5
2018-Jul-21 03:00N 39°45' W 075°29'4 9.0
2018-Jul-21 02:30N 39°41' W 075°31'511.0
2018-Jul-21 02:00N 39°36' W 075°34'611.9
2018-Jul-21 01:30N 39°30' W 075°33'612.3
2018-Jul-21 01:00N 39°24' W 075°30'713.3
2018-Jul-21 00:27N 39°19' W 075°24'73 7.1
2018-Jul-20 14:09N 38°40' W 074°03'317.4
2018-Jul-20 13:58N 38°42' W 073°59'1216.7
2018-Jul-20 13:16N 38°45' W 073°45'416.1
2018-Jul-20 13:00N 38°46' W 073°40'915.7
2018-Jul-20 12:28N 38°49' W 073°29'917.1
2018-Jul-20 11:56N 38°49' W 073°18'817.2
2018-Jul-20 11:30N 38°49' W 073°08'  
Track history (hours):
 
Tides and Currents Weather Stations Pressure Air Temp Water Temp Dewpoint Dewpoint Depression Visibility Wind Speed Wind Dir Waves Ship Positions

Js Ineos Invention

Last reported at 2018-Jul-21 18:33 UTC. Time now 2018-Jul-21 19:32 UTC.
Position N 39°48' W 075°25'.

Length 180 m; draft 7.7 m.

Type: Other ship. MMSI: 249551000.

Date/timePositionNaut miles runAvg speedWind from/ knotsBaromVisibWave heightAir tempDewpointWater temp
2018-Jul-21 18:33N 39°48' W 075°25'0 0.0
2018-Jul-21 18:27N 39°48' W 075°25'0 0.0
2018-Jul-21 18:00N 39°48' W 075°25'0 0.0
2018-Jul-21 17:00N 39°48' W 075°25'0 0.0
2018-Jul-21 07:33N 39°48' W 075°25'0 0.0
2018-Jul-21 05:57N 39°48' W 075°25'0 0.0
2018-Jul-21 04:39N 39°48' W 075°25'0 0.0
2018-Jul-21 04:30N 39°48' W 075°25'0 0.0
2018-Jul-21 04:01N 39°48' W 075°25'1 2.1
2018-Jul-21 03:30N 39°48' W 075°26'4 7.5
2018-Jul-21 03:00N 39°45' W 075°29'4 9.0
2018-Jul-21 02:30N 39°41' W 075°31'511.0
2018-Jul-21 02:00N 39°36' W 075°34'611.9
2018-Jul-21 01:30N 39°30' W 075°33'612.3
2018-Jul-21 01:00N 39°24' W 075°30'713.3
2018-Jul-21 00:27N 39°19' W 075°24'73 7.1
2018-Jul-20 14:09N 38°40' W 074°03'317.4
2018-Jul-20 13:58N 38°42' W 073°59'1216.7
2018-Jul-20 13:16N 38°45' W 073°45'416.1
2018-Jul-20 13:00N 38°46' W 073°40'915.7
2018-Jul-20 12:28N 38°49' W 073°29'917.1
2018-Jul-20 11:56N 38°49' W 073°18'817.2
2018-Jul-20 11:30N 38°49' W 073°08'  

Dump ship's entire track history